^^
B2 Weather Station Historical Data
Daily Summary for March 23, 2019 Units:  English    Metric   Both
Daily Weekly Monthly Yearly Custom
  High: Low: Average:
Temperature: 52.7 °F 24.3 °F 38.3 °F
Dew Point: 35.6 °F 21.3 °F 29.6 °F
Humidity: 94% 43% 73%
Wind Speed: 9.2mph 0.0mph 1.3mph
Wind Gust: 6.9mph - -
Wind- - SE
Pressure: 30.39 in 30.23 in -
Precipitation: 0.00 in    
Historical Graphs
 
 
Tabular Data for March 23, 2019
Time Temperature Dew Point Pressure Wind Wind Speed Wind Gust Humidity Rainfall Rate (Hourly) solar
00:04 29.3 °F 25.6 °F 30.27 in Calm     86% 0.00 in 0.00 W/m2
00:09 29.2 °F 25.5 °F 30.27 in Calm     86% 0.00 in 0.00 W/m2
00:14 29.3 °F 25.9 °F 30.27 in Calm     87% 0.00 in 0.00 W/m2
00:19 29.3 °F 25.9 °F 30.27 in Calm     87% 0.00 in 0.00 W/m2
00:25 29.2 °F 25.8 °F 30.27 in Calm     87% 0.00 in 0.00 W/m2
00:29 28.9 °F 25.5 °F 30.27 in Calm     87% 0.00 in 0.00 W/m2
00:34 29.0 °F 25.9 °F 30.27 in Calm     88% 0.00 in 0.00 W/m2
00:39 29.3 °F 26.2 °F 30.27 in Calm     88% 0.00 in 0.00 W/m2
00:44 29.1 °F 25.7 °F 30.27 in Calm     87% 0.00 in 0.00 W/m2
00:49 28.5 °F 24.8 °F 30.27 in Calm     86% 0.00 in 0.00 W/m2
00:54 28.1 °F 24.7 °F 30.27 in Calm     87% 0.00 in 0.00 W/m2
00:59 27.9 °F 24.5 °F 30.27 in Calm     87% 0.00 in 0.00 W/m2
01:04 28.0 °F 24.9 °F 30.28 in Calm     88% 0.00 in 0.00 W/m2
01:09 28.2 °F 25.4 °F 30.28 in Calm     89% 0.00 in 0.00 W/m2
01:14 28.2 °F 25.4 °F 30.28 in Calm     89% 0.00 in 0.00 W/m2
01:19 28.1 °F 25.3 °F 30.28 in Calm     89% 0.00 in 0.00 W/m2
01:24 27.9 °F 24.8 °F 30.28 in Calm     88% 0.00 in 0.00 W/m2
01:29 27.4 °F 24.3 °F 30.28 in Calm     88% 0.00 in 0.00 W/m2
01:34 27.4 °F 24.3 °F 30.28 in Calm     88% 0.00 in 0.00 W/m2
01:39 27.4 °F 24.6 °F 30.29 in Calm     89% 0.00 in 0.00 W/m2
01:45 27.7 °F 24.9 °F 30.29 in Calm     89% 0.00 in 0.00 W/m2
01:49 27.7 °F 24.9 °F 30.29 in Calm     89% 0.00 in 0.00 W/m2
01:54 27.7 °F 24.9 °F 30.29 in Calm     89% 0.00 in 0.00 W/m2
01:59 27.2 °F 24.1 °F 30.29 in NE 2.3 mph 0.8 mph 88% 0.00 in 0.00 W/m2
02:04 27.1 °F 24.3 °F 30.29 in NE 2.3 mph 1.2 mph 89% 0.00 in 0.00 W/m2
02:09 27.2 °F 24.4 °F 30.30 in NE 2.3 mph 0.7 mph 89% 0.00 in 0.00 W/m2
02:14 27.2 °F 24.7 °F 30.30 in NE 2.3 mph 0.4 mph 90% 0.00 in 0.00 W/m2
02:19 27.2 °F 24.7 °F 30.30 in NE 2.3 mph 0.6 mph 90% 0.00 in 0.00 W/m2
02:24 27.3 °F 24.8 °F 30.30 in Calm     90% 0.00 in 0.00 W/m2
02:29 27.6 °F 25.1 °F 30.30 in NE 1.0 mph   90% 0.00 in 0.00 W/m2
02:34 27.9 °F 25.3 °F 30.30 in Calm     90% 0.00 in 0.00 W/m2
02:39 28.0 °F 25.4 °F 30.30 in Calm     90% 0.00 in 0.00 W/m2
02:44 27.9 °F 25.1 °F 30.30 in Calm     89% 0.00 in 0.00 W/m2
02:49 27.8 °F 25.0 °F 30.30 in Calm     89% 0.00 in 0.00 W/m2
02:54 27.7 °F 24.6 °F 30.29 in Calm     88% 0.00 in 0.00 W/m2
02:59 27.4 °F 24.3 °F 30.30 in Calm     88% 0.00 in 0.00 W/m2
03:04 27.2 °F 24.1 °F 30.30 in NE 1.2 mph 0.3 mph 88% 0.00 in 0.00 W/m2
03:09 27.3 °F 24.5 °F 30.30 in Calm     89% 0.00 in 0.00 W/m2
03:14 27.6 °F 25.1 °F 30.30 in Calm     90% 0.00 in 0.00 W/m2
03:19 27.9 °F 25.3 °F 30.30 in Calm     90% 0.00 in 0.00 W/m2
03:24 28.1 °F 25.5 °F 30.30 in Calm     90% 0.00 in 0.00 W/m2
03:29 27.7 °F 24.6 °F 30.30 in Calm     88% 0.00 in 0.00 W/m2
03:34 27.5 °F 24.7 °F 30.30 in Calm     89% 0.00 in 0.00 W/m2
03:39 27.6 °F 24.8 °F 30.30 in Calm     89% 0.00 in 0.00 W/m2
03:44 27.2 °F 24.1 °F 30.30 in Calm     88% 0.00 in 0.00 W/m2
03:49 27.0 °F 23.9 °F 30.30 in Calm     88% 0.00 in 0.00 W/m2
03:54 26.7 °F 23.6 °F 30.30 in Calm     88% 0.00 in 0.00 W/m2
03:59 26.8 °F 23.7 °F 30.30 in Calm     88% 0.00 in 0.00 W/m2
04:04 27.0 °F 24.2 °F 30.30 in Calm     89% 0.00 in 0.00 W/m2
04:09 26.7 °F 23.6 °F 30.30 in Calm     88% 0.00 in 0.00 W/m2
04:14 26.8 °F 24.0 °F 30.30 in Calm     89% 0.00 in 0.00 W/m2
04:19 26.7 °F 23.6 °F 30.30 in Calm     88% 0.00 in 0.00 W/m2
04:24 26.7 °F 23.9 °F 30.30 in Calm     89% 0.00 in 0.00 W/m2
04:29 26.7 °F 23.9 °F 30.30 in Calm     89% 0.00 in 0.00 W/m2
04:34 26.6 °F 23.8 °F 30.30 in Calm     89% 0.00 in 0.00 W/m2
04:39 26.4 °F 23.3 °F 30.30 in Calm     88% 0.00 in 0.00 W/m2
04:44 26.0 °F 22.7 °F 30.30 in Calm     87% 0.00 in 0.00 W/m2
04:49 25.8 °F 22.5 °F 30.30 in Calm     87% 0.00 in 0.00 W/m2
04:54 25.7 °F 22.6 °F 30.30 in Calm     88% 0.00 in 0.00 W/m2
04:59 25.8 °F 22.7 °F 30.30 in Calm     88% 0.00 in 0.00 W/m2
05:04 25.8 °F 22.7 °F 30.31 in Calm     88% 0.00 in 0.00 W/m2
05:09 25.8 °F 23.0 °F 30.31 in Calm     89% 0.00 in 0.00 W/m2
05:14 25.6 °F 22.5 °F 30.31 in Calm     88% 0.00 in 0.00 W/m2
05:19 25.5 °F 22.4 °F 30.31 in Calm     88% 0.00 in 0.00 W/m2
05:24 25.5 °F 22.7 °F 30.31 in Calm     89% 0.00 in 0.00 W/m2
05:29 25.5 °F 22.7 °F 30.31 in Calm     89% 0.00 in 0.00 W/m2
05:34 25.3 °F 22.5 °F 30.31 in Calm     89% 0.00 in 0.00 W/m2
05:39 25.1 °F 22.0 °F 30.31 in Calm     88% 0.00 in 0.00 W/m2
05:44 24.7 °F 21.9 °F 30.32 in Calm     89% 0.00 in 0.00 W/m2
05:49 24.7 °F 21.9 °F 30.32 in Calm     89% 0.00 in 0.00 W/m2
05:54 24.3 °F 21.3 °F 30.32 in Calm     88% 0.00 in 0.00 W/m2
05:59 24.4 °F 21.9 °F 30.32 in Calm     90% 0.00 in 0.00 W/m2
06:04 24.7 °F 22.2 °F 30.33 in Calm     90% 0.00 in 0.00 W/m2
06:09 25.1 °F 22.8 °F 30.32 in Calm     91% 0.00 in 0.00 W/m2
06:14 25.0 °F 22.5 °F 30.32 in Calm     90% 0.00 in 0.00 W/m2
06:19 25.2 °F 22.9 °F 30.33 in NE 2.3 mph   91% 0.00 in 0.00 W/m2
06:24 25.2 °F 22.9 °F 30.33 in NE 1.2 mph 0.6 mph 91% 0.00 in 0.00 W/m2
06:29 24.8 °F 22.3 °F 30.33 in NE 2.3 mph 0.3 mph 90% 0.00 in 0.00 W/m2
06:34 24.7 °F 22.4 °F 30.33 in Calm   0.1 mph 91% 0.00 in 0.00 W/m2
06:39 24.7 °F 22.4 °F 30.34 in NE 1.2 mph 0.4 mph 91% 0.00 in 0.00 W/m2
06:44 24.7 °F 22.4 °F 30.34 in NE 2.3 mph 1.1 mph 91% 0.00 in 0.00 W/m2
06:49 24.5 °F 22.2 °F 30.34 in NE 1.2 mph   91% 0.00 in 0.00 W/m2
06:54 24.5 °F 22.5 °F 30.34 in Calm     92% 0.00 in 5.00 W/m2
06:59 24.5 °F 22.5 °F 30.34 in NE 2.3 mph 0.6 mph 92% 0.00 in 9.00 W/m2
07:04 24.8 °F 22.8 °F 30.35 in NE 1.2 mph 0.5 mph 92% 0.00 in 12.00 W/m2
07:09 25.1 °F 23.1 °F 30.35 in NE 1.2 mph   92% 0.00 in 16.00 W/m2
07:14 25.4 °F 23.7 °F 30.35 in Calm     93% 0.00 in 18.00 W/m2
07:19 25.8 °F 24.1 °F 30.36 in Calm     93% 0.00 in 25.00 W/m2
07:24 25.7 °F 23.7 °F 30.36 in Calm     92% 0.00 in 35.00 W/m2
07:29 26.0 °F 24.0 °F 30.36 in Calm     92% 0.00 in 53.00 W/m2
07:34 26.4 °F 24.7 °F 30.36 in Calm     93% 0.00 in 72.00 W/m2
07:39 27.5 °F 26.0 °F 30.36 in Calm     94% 0.00 in 88.00 W/m2
07:44 28.6 °F 27.1 °F 30.36 in Calm     94% 0.00 in 104.00 W/m2
07:49 29.1 °F 27.3 °F 30.36 in Calm     93% 0.00 in 121.00 W/m2
07:54 29.7 °F 27.9 °F 30.36 in NE 1.2 mph   93% 0.00 in 139.00 W/m2
07:59 30.1 °F 28.1 °F 30.37 in Calm     92% 0.00 in 158.00 W/m2
08:04 30.4 °F 28.4 °F 30.37 in Calm     92% 0.00 in 185.00 W/m2
08:09 31.1 °F 29.0 °F 30.37 in Calm     92% 0.00 in 216.00 W/m2
08:14 31.6 °F 29.5 °F 30.37 in Calm     92% 0.00 in 227.00 W/m2
08:19 32.1 °F 30.0 °F 30.37 in Calm     92% 0.00 in 248.00 W/m2
08:24 32.3 °F 30.0 °F 30.37 in Calm     91% 0.00 in 264.00 W/m2
08:29 32.6 °F 30.3 °F 30.37 in Calm     91% 0.00 in 278.00 W/m2
08:34 33.0 °F 30.7 °F 30.37 in Calm     91% 0.00 in 294.00 W/m2
08:39 33.3 °F 30.7 °F 30.37 in Calm     90% 0.00 in 309.00 W/m2
08:44 33.9 °F 31.3 °F 30.37 in Calm     90% 0.00 in 325.00 W/m2
08:49 35.1 °F 32.7 °F 30.37 in Calm     91% 0.00 in 341.00 W/m2
08:54 36.0 °F 33.1 °F 30.37 in Calm     89% 0.00 in 357.00 W/m2
08:59 36.8 °F 33.3 °F 30.37 in Calm     87% 0.00 in 376.00 W/m2
09:04 37.2 °F 32.8 °F 30.37 in Calm     84% 0.00 in 397.00 W/m2
09:09 37.5 °F 32.8 °F 30.37 in Calm     83% 0.00 in 418.00 W/m2
09:14 37.5 °F 32.2 °F 30.37 in Calm     81% 0.00 in 438.00 W/m2
09:19 37.3 °F 32.3 °F 30.37 in Calm     82% 0.00 in 455.00 W/m2
09:24 37.5 °F 32.5 °F 30.37 in Calm     82% 0.00 in 471.00 W/m2
09:29 37.7 °F 32.7 °F 30.37 in Calm     82% 0.00 in 489.00 W/m2
09:34 37.7 °F 32.7 °F 30.37 in Calm     82% 0.00 in 504.00 W/m2
09:39 37.9 °F 32.9 °F 30.37 in Calm     82% 0.00 in 519.00 W/m2
09:44 38.1 °F 33.1 °F 30.37 in Calm     82% 0.00 in 534.00 W/m2
09:49 38.2 °F 32.6 °F 30.38 in Calm     80% 0.00 in 548.00 W/m2
09:54 38.5 °F 32.6 °F 30.38 in ESE 2.3 mph 0.8 mph 79% 0.00 in 563.00 W/m2
09:59 38.8 °F 32.5 °F 30.38 in East 2.3 mph 0.4 mph 78% 0.00 in 575.00 W/m2
10:04 39.2 °F 32.9 °F 30.39 in Calm     78% 0.00 in 589.00 W/m2
10:09 39.6 °F 33.3 °F 30.39 in SSE 3.5 mph 2.4 mph 78% 0.00 in 603.00 W/m2
10:14 39.9 °F 32.9 °F 30.39 in SSE 2.3 mph 0.9 mph 76% 0.00 in 615.00 W/m2
10:19 40.0 °F 32.4 °F 30.39 in SE 3.5 mph 0.1 mph 74% 0.00 in 629.00 W/m2
10:24 40.1 °F 32.5 °F 30.39 in Calm     74% 0.00 in 640.00 W/m2
10:29 40.5 °F 33.5 °F 30.39 in South 2.3 mph 0.7 mph 76% 0.00 in 654.00 W/m2
10:34 40.7 °F 32.7 °F 30.39 in ESE 3.5 mph 0.1 mph 73% 0.00 in 664.00 W/m2
10:39 41.0 °F 32.7 °F 30.39 in ESE 4.6 mph 1.6 mph 72% 0.00 in 675.00 W/m2
10:44 41.2 °F 32.9 °F 30.39 in SSE 3.5 mph 1.8 mph 72% 0.00 in 687.00 W/m2
10:49 41.5 °F 33.1 °F 30.39 in SSE 3.0 mph 0.2 mph 72% 0.00 in 698.00 W/m2
10:54 41.9 °F 32.8 °F 30.39 in Calm     70% 0.00 in 708.00 W/m2
10:59 41.8 °F 32.4 °F 30.39 in South 1.2 mph   69% 0.00 in 719.00 W/m2
11:04 42.2 °F 32.4 °F 30.39 in SSW 3.5 mph 0.4 mph 68% 0.00 in 728.00 W/m2
11:09 42.5 °F 31.6 °F 30.39 in SE 3.5 mph 1.3 mph 65% 0.00 in 735.00 W/m2
11:14 42.9 °F 31.6 °F 30.39 in East 3.5 mph 0.4 mph 64% 0.00 in 745.00 W/m2
11:19 43.4 °F 32.4 °F 30.38 in Calm     65% 0.00 in 754.00 W/m2
11:24 43.8 °F 33.2 °F 30.38 in ESE 3.5 mph   66% 0.00 in 763.00 W/m2
11:29 44.4 °F 33.4 °F 30.38 in ESE 2.3 mph 0.1 mph 65% 0.00 in 766.00 W/m2
11:34 44.5 °F 33.1 °F 30.38 in SSW 2.3 mph 2.7 mph 64% 0.00 in 779.00 W/m2
11:39 44.5 °F 31.9 °F 30.37 in SE 2.3 mph 0.1 mph 61% 0.00 in 784.00 W/m2
11:44 44.5 °F 31.5 °F 30.37 in ESE 2.3 mph 0.4 mph 60% 0.00 in 795.00 W/m2
11:49 44.7 °F 32.5 °F 30.37 in Calm     62% 0.00 in 796.00 W/m2
11:54 45.3 °F 33.0 °F 30.37 in SSE 5.8 mph 3.1 mph 62% 0.00 in 803.00 W/m2
11:59 45.3 °F 31.4 °F 30.36 in SSW 4.6 mph 1.2 mph 58% 0.00 in 809.00 W/m2
12:04 45.4 °F 32.7 °F 30.36 in South 3.5 mph 2.2 mph 61% 0.00 in 814.00 W/m2
12:09 45.6 °F 32.1 °F 30.36 in SSE 4.6 mph 1.7 mph 59% 0.00 in 819.00 W/m2
12:14 45.5 °F 32.4 °F 30.36 in East 1.0 mph 0.4 mph 60% 0.00 in 819.00 W/m2
12:19 46.1 °F 32.6 °F 30.36 in SSE 4.6 mph 1.1 mph 59% 0.00 in 824.00 W/m2
12:24 46.5 °F 31.2 °F 30.36 in SSE 3.5 mph   55% 0.00 in 831.00 W/m2
12:29 46.3 °F 31.0 °F 30.35 in ESE 5.8 mph 1.9 mph 55% 0.00 in 835.00 W/m2
12:34 46.1 °F 31.3 °F 30.35 in ENE 3.5 mph 0.1 mph 56% 0.00 in 833.00 W/m2
12:39 46.9 °F 32.9 °F 30.35 in SSE 6.9 mph 2.1 mph 58% 0.00 in 840.00 W/m2
12:44 47.0 °F 31.2 °F 30.36 in SSE 2.3 mph   54% 0.00 in 838.00 W/m2
12:49 47.3 °F 32.4 °F 30.36 in ESE 4.6 mph 2.8 mph 56% 0.00 in 840.00 W/m2
12:54 47.7 °F 32.8 °F 30.36 in ESE 6.9 mph 3.1 mph 56% 0.00 in 840.00 W/m2
12:59 47.9 °F 32.5 °F 30.36 in South 8.1 mph 1.8 mph 55% 0.00 in 838.00 W/m2
13:04 48.0 °F 31.7 °F 30.36 in SSE 8.1 mph 2.3 mph 53% 0.00 in 838.00 W/m2
13:09 48.5 °F 33.1 °F 30.35 in SE 2.3 mph 1.1 mph 55% 0.00 in 837.00 W/m2
13:14 48.6 °F 31.8 °F 30.35 in ENE 2.3 mph 0.4 mph 52% 0.00 in 837.00 W/m2
13:19 48.6 °F 32.2 °F 30.35 in ESE 4.0 mph 2.9 mph 53% 0.00 in 835.00 W/m2
13:24 48.4 °F 32.0 °F 30.34 in ESE 3.5 mph   53% 0.00 in 833.00 W/m2
13:29 48.4 °F 32.0 °F 30.34 in SE 4.6 mph 2.3 mph 53% 0.00 in 833.00 W/m2
13:34 48.5 °F 32.6 °F 30.34 in East 2.3 mph 0.3 mph 54% 0.00 in 826.00 W/m2
13:39 48.6 °F 32.2 °F 30.34 in ESE 4.6 mph 4.0 mph 53% 0.00 in 830.00 W/m2
13:44 48.8 °F 32.4 °F 30.34 in East 2.0 mph 1.4 mph 53% 0.00 in 821.00 W/m2
13:49 48.9 °F 31.1 °F 30.33 in SE 3.0 mph 0.9 mph 50% 0.00 in 817.00 W/m2
13:54 48.9 °F 31.5 °F 30.33 in ESE 3.5 mph   51% 0.00 in 814.00 W/m2
13:59 48.9 °F 31.1 °F 30.33 in Calm     50% 0.00 in 810.00 W/m2
14:04 49.0 °F 31.2 °F 30.33 in Calm     50% 0.00 in 805.00 W/m2
14:09 49.4 °F 31.5 °F 30.33 in Calm     50% 0.00 in 796.00 W/m2
14:14 49.9 °F 32.0 °F 30.33 in SSW 3.5 mph 0.4 mph 50% 0.00 in 791.00 W/m2
14:19 50.2 °F 32.8 °F 30.32 in SSE 9.2 mph 1.9 mph 51% 0.00 in 786.00 W/m2
14:24 50.6 °F 32.1 °F 30.32 in SSE 5.8 mph 4.4 mph 49% 0.00 in 780.00 W/m2
14:29 50.6 °F 32.1 °F 30.32 in ENE 3.5 mph   49% 0.00 in 770.00 W/m2
14:34 50.5 °F 31.0 °F 30.32 in East 4.6 mph 0.8 mph 47% 0.00 in 763.00 W/m2
14:39 50.3 °F 32.4 °F 30.31 in NE 2.3 mph 1.6 mph 50% 0.00 in 754.00 W/m2
14:44 50.6 °F 34.1 °F 30.31 in East 3.5 mph 0.3 mph 53% 0.00 in 747.00 W/m2
14:49 50.7 °F 32.7 °F 30.30 in ESE 4.6 mph 1.5 mph 50% 0.00 in 737.00 W/m2
14:54 50.8 °F 32.3 °F 30.31 in SSE 3.5 mph 0.9 mph 49% 0.00 in 726.00 W/m2
14:59 50.6 °F 31.6 °F 30.30 in SSE 2.3 mph   48% 0.00 in 715.00 W/m2
15:04 50.7 °F 32.7 °F 30.30 in SSE 4.0 mph 1.5 mph 50% 0.00 in 707.00 W/m2
15:09 51.0 °F 32.0 °F 30.30 in Calm     48% 0.00 in 698.00 W/m2
15:14 51.2 °F 32.2 °F 30.30 in SSE 2.3 mph   48% 0.00 in 680.00 W/m2
15:19 51.3 °F 33.3 °F 30.30 in SE 4.6 mph 3.0 mph 50% 0.00 in 671.00 W/m2
15:24 51.5 °F 34.0 °F 30.29 in SSE 5.8 mph 3.6 mph 51% 0.00 in 663.00 W/m2
15:29 51.5 °F 33.5 °F 30.29 in South 3.5 mph 0.2 mph 50% 0.00 in 650.00 W/m2
15:34 51.8 °F 33.7 °F 30.29 in SSE 5.8 mph 4.9 mph 50% 0.00 in 636.00 W/m2
15:39 51.8 °F 33.2 °F 30.29 in South 3.5 mph   49% 0.00 in 622.00 W/m2
15:44 51.9 °F 32.8 °F 30.29 in SE 5.8 mph 0.8 mph 48% 0.00 in 613.00 W/m2
15:49 51.9 °F 33.3 °F 30.29 in South 6.9 mph 6.9 mph 49% 0.00 in 601.00 W/m2
15:54 52.0 °F 33.4 °F 30.29 in South 6.9 mph 2.6 mph 49% 0.00 in 584.00 W/m2
15:59 52.2 °F 33.6 °F 30.28 in South 4.6 mph 4.3 mph 49% 0.00 in 563.00 W/m2
16:04 52.3 °F 33.2 °F 30.28 in South 6.9 mph 0.3 mph 48% 0.00 in 564.00 W/m2
16:09 52.4 °F 32.2 °F 30.28 in Calm     46% 0.00 in 552.00 W/m2
16:14 52.7 °F 32.5 °F 30.28 in East 4.6 mph 0.6 mph 46% 0.00 in 540.00 W/m2
16:19 52.4 °F 32.2 °F 30.28 in SE 3.5 mph   46% 0.00 in 515.00 W/m2
16:24 52.3 °F 33.7 °F 30.28 in SSE 6.9 mph 4.7 mph 49% 0.00 in 503.00 W/m2
16:29 52.1 °F 32.5 °F 30.28 in SE 4.6 mph 2.5 mph 47% 0.00 in 483.00 W/m2
16:34 52.0 °F 31.3 °F 30.28 in South 9.2 mph 5.5 mph 45% 0.00 in 469.00 W/m2
16:39 51.9 °F 30.1 °F 30.28 in SSE 5.0 mph 3.8 mph 43% 0.00 in 452.00 W/m2
16:44 52.0 °F 31.8 °F 30.28 in SE 5.0 mph 4.6 mph 46% 0.00 in 438.00 W/m2
16:49 52.0 °F 31.8 °F 30.28 in SE 2.0 mph 0.3 mph 46% 0.00 in 425.00 W/m2
16:54 51.9 °F 31.7 °F 30.27 in South 2.3 mph 1.1 mph 46% 0.00 in 408.00 W/m2
16:59 51.9 °F 32.3 °F 30.27 in South 2.3 mph 1.2 mph 47% 0.00 in 390.00 W/m2
17:04 51.8 °F 31.7 °F 30.27 in South 4.6 mph 3.1 mph 46% 0.00 in 374.00 W/m2
17:09 51.7 °F 31.6 °F 30.27 in Calm     46% 0.00 in 229.00 W/m2
17:14 51.5 °F 31.9 °F 30.27 in South 5.0 mph 2.5 mph 47% 0.00 in 91.00 W/m2
17:19 50.6 °F 31.1 °F 30.27 in SSE 5.8 mph 2.5 mph 47% 0.00 in 116.00 W/m2
17:24 50.0 °F 30.5 °F 30.27 in SSE 3.5 mph 0.7 mph 47% 0.00 in 121.00 W/m2
17:29 49.9 °F 31.0 °F 30.27 in South 1.2 mph 0.4 mph 48% 0.00 in 232.00 W/m2
17:34 49.9 °F 31.5 °F 30.26 in SSE 3.5 mph 2.2 mph 49% 0.00 in 118.00 W/m2
17:39 49.6 °F 32.7 °F 30.26 in SSE 3.5 mph 2.6 mph 52% 0.00 in 118.00 W/m2
17:44 49.4 °F 32.5 °F 30.26 in SSE 3.5 mph 1.7 mph 52% 0.00 in 120.00 W/m2
17:49 49.4 °F 33.0 °F 30.26 in South 3.5 mph   53% 0.00 in 125.00 W/m2
17:54 49.4 °F 33.0 °F 30.26 in Calm     53% 0.00 in 128.00 W/m2
17:59 49.5 °F 32.6 °F 30.26 in South 3.5 mph 1.8 mph 52% 0.00 in 109.00 W/m2
18:04 49.5 °F 33.1 °F 30.27 in Calm     53% 0.00 in 104.00 W/m2
18:09 49.4 °F 32.0 °F 30.27 in Calm   0.7 mph 51% 0.00 in 95.00 W/m2
18:14 49.2 °F 32.3 °F 30.27 in South 1.2 mph   52% 0.00 in 77.00 W/m2
18:19 49.2 °F 32.8 °F 30.27 in Calm     53% 0.00 in 65.00 W/m2
18:24 49.0 °F 33.1 °F 30.27 in Calm     54% 0.00 in 56.00 W/m2
18:29 48.8 °F 33.8 °F 30.27 in Calm     56% 0.00 in 49.00 W/m2
18:34 48.6 °F 34.0 °F 30.27 in Calm     57% 0.00 in 39.00 W/m2
18:39 48.3 °F 34.6 °F 30.27 in Calm     59% 0.00 in 32.00 W/m2
18:44 47.8 °F 34.6 °F 30.27 in Calm     60% 0.00 in 26.00 W/m2
18:49 47.3 °F 35.3 °F 30.26 in Calm     63% 0.00 in 19.00 W/m2
18:54 46.8 °F 35.6 °F 30.26 in Calm     65% 0.00 in 11.00 W/m2
18:59 46.2 °F 35.5 °F 30.26 in Calm     66% 0.00 in 5.00 W/m2
19:04 45.7 °F 34.2 °F 30.27 in Calm     64% 0.00 in 0.00 W/m2
19:09 45.3 °F 34.2 °F 30.26 in Calm     65% 0.00 in 0.00 W/m2
19:14 44.9 °F 33.5 °F 30.27 in Calm     64% 0.00 in 0.00 W/m2
19:19 44.7 °F 33.6 °F 30.27 in Calm     65% 0.00 in 0.00 W/m2
19:24 44.4 °F 33.7 °F 30.27 in Calm     66% 0.00 in 0.00 W/m2
19:29 44.1 °F 33.5 °F 30.26 in Calm     66% 0.00 in 0.00 W/m2
19:34 43.8 °F 33.9 °F 30.26 in Calm     68% 0.00 in 0.00 W/m2
19:39 43.5 °F 34.0 °F 30.26 in Calm     69% 0.00 in 0.00 W/m2
19:44 43.2 °F 33.7 °F 30.26 in Calm     69% 0.00 in 0.00 W/m2
19:49 42.9 °F 33.8 °F 30.26 in Calm     70% 0.00 in 0.00 W/m2
19:54 42.7 °F 34.6 °F 30.26 in Calm     73% 0.00 in 0.00 W/m2
19:59 42.5 °F 34.8 °F 30.26 in Calm     74% 0.00 in 0.00 W/m2
20:04 42.3 °F 34.9 °F 30.26 in Calm     75% 0.00 in 0.00 W/m2
20:09 42.1 °F 34.1 °F 30.25 in Calm     73% 0.00 in 0.00 W/m2
20:14 41.9 °F 33.9 °F 30.25 in Calm     73% 0.00 in 0.00 W/m2
20:19 41.7 °F 33.7 °F 30.25 in Calm     73% 0.00 in 0.00 W/m2
20:24 41.5 °F 33.1 °F 30.25 in Calm     72% 0.00 in 0.00 W/m2
20:29 41.3 °F 33.3 °F 30.25 in Calm     73% 0.00 in 0.00 W/m2
20:34 41.3 °F 33.6 °F 30.25 in Calm     74% 0.00 in 0.00 W/m2
20:39 41.1 °F 33.8 °F 30.25 in Calm     75% 0.00 in 0.00 W/m2
20:44 41.1 °F 33.8 °F 30.25 in Calm     75% 0.00 in 0.00 W/m2
20:49 41.2 °F 33.5 °F 30.25 in Calm     74% 0.00 in 0.00 W/m2
20:54 41.1 °F 33.1 °F 30.25 in Calm     73% 0.00 in 0.00 W/m2
20:59 40.9 °F 32.6 °F 30.25 in Calm     72% 0.00 in 0.00 W/m2
21:04 40.7 °F 32.7 °F 30.25 in Calm     73% 0.00 in 0.00 W/m2
21:09 40.5 °F 32.2 °F 30.25 in Calm     72% 0.00 in 0.00 W/m2
21:14 40.3 °F 32.0 °F 30.25 in Calm     72% 0.00 in 0.00 W/m2
21:19 40.2 °F 31.5 °F 30.25 in Calm     71% 0.00 in 0.00 W/m2
21:24 40.3 °F 31.3 °F 30.25 in Calm     70% 0.00 in 0.00 W/m2
21:29 40.4 °F 31.4 °F 30.25 in Calm     70% 0.00 in 0.00 W/m2
21:34 40.2 °F 31.2 °F 30.25 in Calm     70% 0.00 in 0.00 W/m2
21:39 39.8 °F 30.8 °F 30.25 in Calm     70% 0.00 in 0.00 W/m2
21:44 39.5 °F 30.9 °F 30.24 in Calm     71% 0.00 in 0.00 W/m2
21:49 39.1 °F 31.2 °F 30.24 in Calm     73% 0.00 in 0.00 W/m2
21:54 38.8 °F 31.2 °F 30.24 in Calm     74% 0.00 in 0.00 W/m2
21:59 38.6 °F 31.4 °F 30.24 in Calm     75% 0.00 in 0.00 W/m2
22:04 38.5 °F 31.3 °F 30.24 in Calm     75% 0.00 in 0.00 W/m2
22:09 38.4 °F 31.2 °F 30.24 in Calm     75% 0.00 in 0.00 W/m2
22:14 38.2 °F 31.0 °F 30.24 in Calm     75% 0.00 in 0.00 W/m2
22:19 38.1 °F 30.9 °F 30.24 in Calm     75% 0.00 in 0.00 W/m2
22:24 38.1 °F 30.9 °F 30.24 in Calm     75% 0.00 in 0.00 W/m2
22:29 38.0 °F 30.8 °F 30.24 in Calm     75% 0.00 in 0.00 W/m2
22:34 38.0 °F 30.8 °F 30.23 in Calm     75% 0.00 in 0.00 W/m2
22:39 37.7 °F 30.5 °F 30.23 in Calm     75% 0.00 in 0.00 W/m2
22:44 37.5 °F 30.3 °F 30.23 in Calm     75% 0.00 in 0.00 W/m2
22:49 37.4 °F 30.5 °F 30.23 in Calm     76% 0.00 in 0.00 W/m2
22:54 37.3 °F 30.4 °F 30.23 in Calm     76% 0.00 in 0.00 W/m2
22:59 37.1 °F 30.6 °F 30.23 in Calm     77% 0.00 in 0.00 W/m2
23:04 37.1 °F 31.2 °F 30.23 in Calm     79% 0.00 in 0.00 W/m2
23:09 37.3 °F 31.4 °F 30.23 in Calm     79% 0.00 in 0.00 W/m2
23:14 37.4 °F 31.5 °F 30.23 in Calm     79% 0.00 in 0.00 W/m2
23:19 37.5 °F 31.6 °F 30.23 in Calm     79% 0.00 in 0.00 W/m2
23:24 37.6 °F 31.4 °F 30.23 in Calm     78% 0.00 in 0.00 W/m2
23:29 37.8 °F 31.2 °F 30.24 in Calm     77% 0.00 in 0.00 W/m2
23:34 38.0 °F 31.1 °F 30.24 in Calm     76% 0.00 in 0.00 W/m2
23:39 38.0 °F 30.8 °F 30.24 in Calm     75% 0.00 in 0.00 W/m2
23:44 38.0 °F 30.4 °F 30.24 in Calm     74% 0.00 in 0.00 W/m2
23:49 38.1 °F 30.5 °F 30.24 in Calm     74% 0.00 in 0.00 W/m2
23:54 38.2 °F 31.0 °F 30.24 in Calm     75% 0.00 in 0.00 W/m2
23:59 38.2 °F 31.0 °F 30.24 in Calm     75% 0.00 in 0.00 W/m2
Bourbonnais, Illinois, USA
Compliments of Weather Underground - 2 mb